sensor_id;sensor_type;location;lat;lon;timestamp;pressure;altitude;pressure_sealevel;temperature;humidity
43480;BME280;29067;35.492;-97.520;2022-12-24T00:00:11;99261.73;;;-13.86;37.78
43480;BME280;29067;35.492;-97.520;2022-12-24T00:02:39;99258.29;;;-12.95;36.75
43480;BME280;29067;35.492;-97.520;2022-12-24T00:05:09;99257.61;;;-13.07;36.66
43480;BME280;29067;35.492;-97.520;2022-12-24T00:07:42;99261.23;;;-13.08;36.60
43480;BME280;29067;35.492;-97.520;2022-12-24T00:10:11;99261.78;;;-13.35;37.32
43480;BME280;29067;35.492;-97.520;2022-12-24T00:12:39;99261.70;;;-13.37;36.85
43480;BME280;29067;35.492;-97.520;2022-12-24T00:15:09;99265.47;;;-14.24;37.94
43480;BME280;29067;35.492;-97.520;2022-12-24T00:17:37;99255.18;;;-13.83;36.98
43480;BME280;29067;35.492;-97.520;2022-12-24T00:20:07;99255.53;;;-13.48;37.45
43480;BME280;29067;35.492;-97.520;2022-12-24T00:22:35;99253.25;;;-13.59;37.66
43480;BME280;29067;35.492;-97.520;2022-12-24T00:25:04;99253.45;;;-14.27;37.86
43480;BME280;29067;35.492;-97.520;2022-12-24T00:27:33;99264.97;;;-14.20;38.55
43480;BME280;29067;35.492;-97.520;2022-12-24T00:30:02;99268.09;;;-14.23;38.47
43480;BME280;29067;35.492;-97.520;2022-12-24T00:32:30;99267.28;;;-14.32;39.17
43480;BME280;29067;35.492;-97.520;2022-12-24T00:34:58;99261.30;;;-12.51;38.74
43480;BME280;29067;35.492;-97.520;2022-12-24T00:37:32;99261.78;;;-12.55;38.35
43480;BME280;29067;35.492;-97.520;2022-12-24T00:40:00;99259.04;;;-11.94;38.48
43480;BME280;29067;35.492;-97.520;2022-12-24T00:42:34;99262.45;;;-13.45;38.69
43480;BME280;29067;35.492;-97.520;2022-12-24T00:45:03;99263.42;;;-13.58;39.92
43480;BME280;29067;35.492;-97.520;2022-12-24T00:47:31;99267.94;;;-14.38;40.07
43480;BME280;29067;35.492;-97.520;2022-12-24T00:50:00;99266.60;;;-14.15;39.72
43480;BME280;29067;35.492;-97.520;2022-12-24T00:52:33;99260.60;;;-11.88;39.52
43480;BME280;29067;35.492;-97.520;2022-12-24T00:55:01;99256.90;;;-11.63;38.63
43480;BME280;29067;35.492;-97.520;2022-12-24T00:57:29;99265.10;;;-13.54;39.50
43480;BME280;29067;35.492;-97.520;2022-12-24T00:59:58;99267.87;;;-12.71;39.21
43480;BME280;29067;35.492;-97.520;2022-12-24T01:02:26;99266.44;;;-12.38;39.40
43480;BME280;29067;35.492;-97.520;2022-12-24T01:04:55;99263.93;;;-12.20;39.40
43480;BME280;29067;35.492;-97.520;2022-12-24T01:07:28;99263.92;;;-12.54;38.95
43480;BME280;29067;35.492;-97.520;2022-12-24T01:09:57;99261.86;;;-12.91;39.43
43480;BME280;29067;35.492;-97.520;2022-12-24T01:12:25;99260.23;;;-12.56;39.94
43480;BME280;29067;35.492;-97.520;2022-12-24T01:14:53;99265.32;;;-12.46;39.64
43480;BME280;29067;35.492;-97.520;2022-12-24T01:17:22;99258.18;;;-13.05;38.39
43480;BME280;29067;35.492;-97.520;2022-12-24T01:19:50;99256.65;;;-13.51;39.88
43480;BME280;29067;35.492;-97.520;2022-12-24T01:22:19;99250.08;;;-11.00;37.81
43480;BME280;29067;35.492;-97.520;2022-12-24T01:24:47;99252.26;;;-11.54;38.51
43480;BME280;29067;35.492;-97.520;2022-12-24T01:27:16;99260.67;;;-13.95;39.45
43480;BME280;29067;35.492;-97.520;2022-12-24T01:29:44;99255.96;;;-12.75;39.25
43480;BME280;29067;35.492;-97.520;2022-12-24T01:32:13;99259.58;;;-12.75;39.44
43480;BME280;29067;35.492;-97.520;2022-12-24T01:34:41;99256.04;;;-12.61;39.22
43480;BME280;29067;35.492;-97.520;2022-12-24T01:37:10;99253.19;;;-12.80;38.47
43480;BME280;29067;35.492;-97.520;2022-12-24T01:39:38;99248.36;;;-11.87;37.35
43480;BME280;29067;35.492;-97.520;2022-12-24T01:42:16;99247.88;;;-13.32;38.74
43480;BME280;29067;35.492;-97.520;2022-12-24T01:44:50;99254.23;;;-14.61;40.65
43480;BME280;29067;35.492;-97.520;2022-12-24T01:47:21;99249.63;;;-13.49;39.02
43480;BME280;29067;35.492;-97.520;2022-12-24T01:49:55;99249.03;;;-14.36;39.85
43480;BME280;29067;35.492;-97.520;2022-12-24T01:52:26;99241.26;;;-13.19;39.37
43480;BME280;29067;35.492;-97.520;2022-12-24T01:54:59;99236.23;;;-12.89;39.23
43480;BME280;29067;35.492;-97.520;2022-12-24T01:57:30;99227.73;;;-11.85;39.37
43480;BME280;29067;35.492;-97.520;2022-12-24T02:00:13;99225.25;;;-12.44;39.06
43480;BME280;29067;35.492;-97.520;2022-12-24T02:02:45;99224.90;;;-12.84;39.08
43480;BME280;29067;35.492;-97.520;2022-12-24T02:05:24;99227.56;;;-14.30;39.68
43480;BME280;29067;35.492;-97.520;2022-12-24T02:07:55;99230.31;;;-13.80;40.50
43480;BME280;29067;35.492;-97.520;2022-12-24T02:10:23;99225.62;;;-13.33;39.17
43480;BME280;29067;35.492;-97.520;2022-12-24T02:12:52;99225.47;;;-12.52;38.40
43480;BME280;29067;35.492;-97.520;2022-12-24T02:15:21;99225.25;;;-13.39;38.80
43480;BME280;29067;35.492;-97.520;2022-12-24T02:17:56;99224.47;;;-13.31;38.41
43480;BME280;29067;35.492;-97.520;2022-12-24T02:20:52;99226.53;;;-14.30;38.92
43480;BME280;29067;35.492;-97.520;2022-12-24T02:23:46;99221.04;;;-13.28;38.65
43480;BME280;29067;35.492;-97.520;2022-12-24T02:26:32;99216.44;;;-13.19;39.08
43480;BME280;29067;35.492;-97.520;2022-12-24T02:29:29;99216.17;;;-12.61;38.38
43480;BME280;29067;35.492;-97.520;2022-12-24T02:32:09;99214.64;;;-12.98;38.32
43480;BME280;29067;35.492;-97.520;2022-12-24T02:34:49;99204.93;;;-12.13;37.95
43480;BME280;29067;35.492;-97.520;2022-12-24T02:37:22;99215.17;;;-14.03;39.22
43480;BME280;29067;35.492;-97.520;2022-12-24T02:40:11;99213.43;;;-13.22;37.75
43480;BME280;29067;35.492;-97.520;2022-12-24T02:42:43;99214.47;;;-13.65;38.90
43480;BME280;29067;35.492;-97.520;2022-12-24T02:45:15;99215.61;;;-14.20;38.80
43480;BME280;29067;35.492;-97.520;2022-12-24T02:47:45;99214.20;;;-13.33;38.87
43480;BME280;29067;35.492;-97.520;2022-12-24T02:50:16;99209.41;;;-13.12;37.72
43480;BME280;29067;35.492;-97.520;2022-12-24T02:52:46;99209.55;;;-12.48;37.98
43480;BME280;29067;35.492;-97.520;2022-12-24T02:55:18;99208.47;;;-12.12;37.66
43480;BME280;29067;35.492;-97.520;2022-12-24T02:58:03;99212.50;;;-13.67;37.06
43480;BME280;29067;35.492;-97.520;2022-12-24T03:00:43;99208.28;;;-12.49;37.10
43480;BME280;29067;35.492;-97.520;2022-12-24T03:03:29;99211.46;;;-13.46;38.07
43480;BME280;29067;35.492;-97.520;2022-12-24T03:06:07;99213.33;;;-12.74;37.79
43480;BME280;29067;35.492;-97.520;2022-12-24T03:08:43;99213.39;;;-13.70;38.59
43480;BME280;29067;35.492;-97.520;2022-12-24T03:11:16;99212.51;;;-13.26;37.26
43480;BME280;29067;35.492;-97.520;2022-12-24T03:13:46;99212.23;;;-13.14;37.64
43480;BME280;29067;35.492;-97.520;2022-12-24T03:16:20;99207.18;;;-13.00;38.36
43480;BME280;29067;35.492;-97.520;2022-12-24T03:18:51;99211.49;;;-12.46;37.50
43480;BME280;29067;35.492;-97.520;2022-12-24T03:21:24;99220.42;;;-14.62;38.53
43480;BME280;29067;35.492;-97.520;2022-12-24T03:23:52;99212.44;;;-13.02;37.60
43480;BME280;29067;35.492;-97.520;2022-12-24T03:26:21;99208.61;;;-12.60;37.79
43480;BME280;29067;35.492;-97.520;2022-12-24T03:28:51;99217.34;;;-14.30;37.80
43480;BME280;29067;35.492;-97.520;2022-12-24T03:31:20;99225.40;;;-15.22;39.09
43480;BME280;29067;35.492;-97.520;2022-12-24T03:33:53;99215.65;;;-13.02;38.77
43480;BME280;29067;35.492;-97.520;2022-12-24T03:36:23;99221.01;;;-13.92;37.98
43480;BME280;29067;35.492;-97.520;2022-12-24T03:38:52;99227.50;;;-14.35;39.00
43480;BME280;29067;35.492;-97.520;2022-12-24T03:41:20;99226.43;;;-14.06;39.06
43480;BME280;29067;35.492;-97.520;2022-12-24T03:43:49;99224.57;;;-13.96;40.03
43480;BME280;29067;35.492;-97.520;2022-12-24T03:46:17;99229.01;;;-14.16;40.02
43480;BME280;29067;35.492;-97.520;2022-12-24T03:48:46;99224.00;;;-12.65;38.82
43480;BME280;29067;35.492;-97.520;2022-12-24T03:51:17;99226.51;;;-12.53;37.80
43480;BME280;29067;35.492;-97.520;2022-12-24T03:53:46;99233.19;;;-13.64;38.01
43480;BME280;29067;35.492;-97.520;2022-12-24T03:56:15;99234.58;;;-14.02;38.44
43480;BME280;29067;35.492;-97.520;2022-12-24T03:58:43;99240.23;;;-14.02;39.27
43480;BME280;29067;35.492;-97.520;2022-12-24T04:01:11;99236.95;;;-13.92;39.44
43480;BME280;29067;35.492;-97.520;2022-12-24T04:03:40;99239.38;;;-14.56;39.71
43480;BME280;29067;35.492;-97.520;2022-12-24T04:06:11;99237.27;;;-12.11;38.38
43480;BME280;29067;35.492;-97.520;2022-12-24T04:08:40;99247.78;;;-14.30;39.66
43480;BME280;29067;35.492;-97.520;2022-12-24T04:11:09;99241.48;;;-12.71;39.29
43480;BME280;29067;35.492;-97.520;2022-12-24T04:13:39;99254.15;;;-15.11;39.54
43480;BME280;29067;35.492;-97.520;2022-12-24T04:16:09;99247.05;;;-14.14;40.46
43480;BME280;29067;35.492;-97.520;2022-12-24T04:18:38;99245.84;;;-13.68;39.37
43480;BME280;29067;35.492;-97.520;2022-12-24T04:21:08;99251.48;;;-14.11;39.74
43480;BME280;29067;35.492;-97.520;2022-12-24T04:23:39;99255.48;;;-14.30;40.97
43480;BME280;29067;35.492;-97.520;2022-12-24T04:26:10;99258.45;;;-14.54;40.18
43480;BME280;29067;35.492;-97.520;2022-12-24T04:28:39;99256.90;;;-13.16;39.74
43480;BME280;29067;35.492;-97.520;2022-12-24T04:31:11;99255.70;;;-14.26;39.68
43480;BME280;29067;35.492;-97.520;2022-12-24T04:33:40;99252.83;;;-13.64;40.01
43480;BME280;29067;35.492;-97.520;2022-12-24T04:36:12;99262.65;;;-13.49;40.52
43480;BME280;29067;35.492;-97.520;2022-12-24T04:38:40;99254.71;;;-12.54;39.00
43480;BME280;29067;35.492;-97.520;2022-12-24T04:41:11;99252.59;;;-12.15;39.03
43480;BME280;29067;35.492;-97.520;2022-12-24T04:43:40;99251.27;;;-13.42;39.40
43480;BME280;29067;35.492;-97.520;2022-12-24T04:46:09;99250.74;;;-12.41;38.68
43480;BME280;29067;35.492;-97.520;2022-12-24T04:48:38;99243.43;;;-12.61;39.20
43480;BME280;29067;35.492;-97.520;2022-12-24T04:51:07;99235.63;;;-12.88;38.82
43480;BME280;29067;35.492;-97.520;2022-12-24T04:53:39;99242.53;;;-14.01;40.03
43480;BME280;29067;35.492;-97.520;2022-12-24T04:56:08;99236.48;;;-12.23;39.41
43480;BME280;29067;35.492;-97.520;2022-12-24T04:58:38;99234.85;;;-11.78;39.05
43480;BME280;29067;35.492;-97.520;2022-12-24T05:01:11;99244.30;;;-12.73;39.18
43480;BME280;29067;35.492;-97.520;2022-12-24T05:03:39;99247.07;;;-14.11;40.24
43480;BME280;29067;35.492;-97.520;2022-12-24T05:06:11;99248.53;;;-13.23;40.92
43480;BME280;29067;35.492;-97.520;2022-12-24T05:08:39;99248.80;;;-13.89;40.60
43480;BME280;29067;35.492;-97.520;2022-12-24T05:11:08;99246.29;;;-13.32;40.74
43480;BME280;29067;35.492;-97.520;2022-12-24T05:13:36;99245.31;;;-13.56;40.81
43480;BME280;29067;35.492;-97.520;2022-12-24T05:16:11;99244.78;;;-12.76;39.85
43480;BME280;29067;35.492;-97.520;2022-12-24T05:18:40;99243.05;;;-12.68;40.02
43480;BME280;29067;35.492;-97.520;2022-12-24T05:21:09;99241.94;;;-13.42;40.92
43480;BME280;29067;35.492;-97.520;2022-12-24T05:23:37;99247.08;;;-14.84;41.29
43480;BME280;29067;35.492;-97.520;2022-12-24T05:26:13;99250.18;;;-14.46;41.46
43480;BME280;29067;35.492;-97.520;2022-12-24T05:28:42;99239.27;;;-13.81;41.96
43480;BME280;29067;35.492;-97.520;2022-12-24T05:31:11;99237.99;;;-12.83;41.31
43480;BME280;29067;35.492;-97.520;2022-12-24T05:33:39;99242.22;;;-12.34;40.37
43480;BME280;29067;35.492;-97.520;2022-12-24T05:36:08;99241.98;;;-12.13;39.96
43480;BME280;29067;35.492;-97.520;2022-12-24T05:38:37;99241.60;;;-12.59;40.54
43480;BME280;29067;35.492;-97.520;2022-12-24T05:41:05;99242.07;;;-12.98;41.01
43480;BME280;29067;35.492;-97.520;2022-12-24T05:43:38;99238.08;;;-12.26;40.22
43480;BME280;29067;35.492;-97.520;2022-12-24T05:46:09;99235.22;;;-12.06;39.42
43480;BME280;29067;35.492;-97.520;2022-12-24T05:48:38;99231.50;;;-12.16;39.52
43480;BME280;29067;35.492;-97.520;2022-12-24T05:51:08;99231.98;;;-12.54;39.58
43480;BME280;29067;35.492;-97.520;2022-12-24T05:53:37;99237.38;;;-13.02;40.26
43480;BME280;29067;35.492;-97.520;2022-12-24T05:56:06;99235.96;;;-12.46;39.24
43480;BME280;29067;35.492;-97.520;2022-12-24T05:58:36;99234.17;;;-12.07;38.03
43480;BME280;29067;35.492;-97.520;2022-12-24T06:01:05;99232.19;;;-13.61;39.57
43480;BME280;29067;35.492;-97.520;2022-12-24T06:03:33;99231.85;;;-12.96;40.04
43480;BME280;29067;35.492;-97.520;2022-12-24T06:06:03;99230.02;;;-13.44;39.93
43480;BME280;29067;35.492;-97.520;2022-12-24T06:08:33;99234.82;;;-14.25;40.62
43480;BME280;29067;35.492;-97.520;2022-12-24T06:11:09;99233.54;;;-14.18;40.85
43480;BME280;29067;35.492;-97.520;2022-12-24T06:13:38;99233.95;;;-13.90;40.15
43480;BME280;29067;35.492;-97.520;2022-12-24T06:16:08;99231.73;;;-14.50;40.24
43480;BME280;29067;35.492;-97.520;2022-12-24T06:18:39;99224.36;;;-12.89;41.22
43480;BME280;29067;35.492;-97.520;2022-12-24T06:21:08;99222.35;;;-13.59;40.70
43480;BME280;29067;35.492;-97.520;2022-12-24T06:23:39;99220.29;;;-14.52;41.34
43480;BME280;29067;35.492;-97.520;2022-12-24T06:26:12;99217.74;;;-14.50;41.16
43480;BME280;29067;35.492;-97.520;2022-12-24T06:28:40;99214.39;;;-13.14;40.59
43480;BME280;29067;35.492;-97.520;2022-12-24T06:31:16;99213.57;;;-12.67;40.46
43480;BME280;29067;35.492;-97.520;2022-12-24T06:33:45;99212.73;;;-13.16;40.07
43480;BME280;29067;35.492;-97.520;2022-12-24T06:36:15;99210.22;;;-13.98;41.04
43480;BME280;29067;35.492;-97.520;2022-12-24T06:38:45;99211.38;;;-13.35;40.50
43480;BME280;29067;35.492;-97.520;2022-12-24T06:41:14;99207.20;;;-13.57;39.81
43480;BME280;29067;35.492;-97.520;2022-12-24T06:43:43;99205.84;;;-13.16;39.96
43480;BME280;29067;35.492;-97.520;2022-12-24T06:46:12;99206.69;;;-13.47;40.11
43480;BME280;29067;35.492;-97.520;2022-12-24T06:48:41;99202.93;;;-13.72;41.04
43480;BME280;29067;35.492;-97.520;2022-12-24T06:51:09;99197.44;;;-12.71;39.90
43480;BME280;29067;35.492;-97.520;2022-12-24T06:53:38;99195.40;;;-13.93;40.43
43480;BME280;29067;35.492;-97.520;2022-12-24T06:56:08;99195.64;;;-14.05;41.01
43480;BME280;29067;35.492;-97.520;2022-12-24T06:58:37;99184.78;;;-13.75;40.64
43480;BME280;29067;35.492;-97.520;2022-12-24T07:01:07;99183.98;;;-13.04;39.53
43480;BME280;29067;35.492;-97.520;2022-12-24T07:03:36;99188.33;;;-12.69;38.42
43480;BME280;29067;35.492;-97.520;2022-12-24T07:06:04;99187.15;;;-13.51;38.38
43480;BME280;29067;35.492;-97.520;2022-12-24T07:08:32;99181.85;;;-14.11;38.52
43480;BME280;29067;35.492;-97.520;2022-12-24T07:11:05;99179.86;;;-13.98;39.83
43480;BME280;29067;35.492;-97.520;2022-12-24T07:13:33;99182.10;;;-14.13;39.65
43480;BME280;29067;35.492;-97.520;2022-12-24T07:16:03;99189.50;;;-15.56;40.61
43480;BME280;29067;35.492;-97.520;2022-12-24T07:18:31;99183.13;;;-13.97;40.34
43480;BME280;29067;35.492;-97.520;2022-12-24T07:21:07;99183.78;;;-12.75;39.13
43480;BME280;29067;35.492;-97.520;2022-12-24T07:23:35;99190.89;;;-13.29;39.22
43480;BME280;29067;35.492;-97.520;2022-12-24T07:26:06;99190.24;;;-12.75;39.08
43480;BME280;29067;35.492;-97.520;2022-12-24T07:28:34;99187.28;;;-11.67;39.00
43480;BME280;29067;35.492;-97.520;2022-12-24T07:31:02;99191.09;;;-12.04;38.78
43480;BME280;29067;35.492;-97.520;2022-12-24T07:33:31;99192.42;;;-13.41;38.63
43480;BME280;29067;35.492;-97.520;2022-12-24T07:36:04;99192.99;;;-14.03;38.40
43480;BME280;29067;35.492;-97.520;2022-12-24T07:38:32;99192.48;;;-12.77;38.21
43480;BME280;29067;35.492;-97.520;2022-12-24T07:41:01;99190.29;;;-13.28;38.69
43480;BME280;29067;35.492;-97.520;2022-12-24T07:43:31;99189.68;;;-13.84;38.29
43480;BME280;29067;35.492;-97.520;2022-12-24T07:45:59;99202.10;;;-13.86;39.83
43480;BME280;29067;35.492;-97.520;2022-12-24T07:48:28;99195.93;;;-13.39;38.37
43480;BME280;29067;35.492;-97.520;2022-12-24T07:50:57;99192.14;;;-12.24;37.45
43480;BME280;29067;35.492;-97.520;2022-12-24T07:53:27;99200.96;;;-14.41;37.68
43480;BME280;29067;35.492;-97.520;2022-12-24T07:55:56;99201.16;;;-14.36;37.95
43480;BME280;29067;35.492;-97.520;2022-12-24T07:58:29;99201.66;;;-13.61;38.19
43480;BME280;29067;35.492;-97.520;2022-12-24T08:00:58;99199.76;;;-13.84;38.32
43480;BME280;29067;35.492;-97.520;2022-12-24T08:03:26;99196.29;;;-12.76;37.40
43480;BME280;29067;35.492;-97.520;2022-12-24T08:05:56;99196.98;;;-12.79;37.32
43480;BME280;29067;35.492;-97.520;2022-12-24T08:08:24;99197.44;;;-12.03;36.88
43480;BME280;29067;35.492;-97.520;2022-12-24T08:10:52;99196.25;;;-13.57;37.52
43480;BME280;29067;35.492;-97.520;2022-12-24T08:13:21;99192.54;;;-12.60;36.63
43480;BME280;29067;35.492;-97.520;2022-12-24T08:15:48;99186.22;;;-12.81;36.51
43480;BME280;29067;35.492;-97.520;2022-12-24T08:18:17;99186.43;;;-12.76;37.11
43480;BME280;29067;35.492;-97.520;2022-12-24T08:20:45;99180.93;;;-13.29;36.95
43480;BME280;29067;35.492;-97.520;2022-12-24T08:23:14;99180.76;;;-14.74;37.01
43480;BME280;29067;35.492;-97.520;2022-12-24T08:25:43;99180.96;;;-15.14;37.76
43480;BME280;29067;35.492;-97.520;2022-12-24T08:28:12;99183.22;;;-14.36;37.29
43480;BME280;29067;35.492;-97.520;2022-12-24T08:30:42;99173.80;;;-14.47;38.50
43480;BME280;29067;35.492;-97.520;2022-12-24T08:33:10;99168.48;;;-14.33;37.52
43480;BME280;29067;35.492;-97.520;2022-12-24T08:35:39;99168.50;;;-13.37;36.68
43480;BME280;29067;35.492;-97.520;2022-12-24T08:38:08;99175.44;;;-14.31;36.75
43480;BME280;29067;35.492;-97.520;2022-12-24T08:40:36;99182.60;;;-14.62;37.09
43480;BME280;29067;35.492;-97.520;2022-12-24T08:43:06;99171.49;;;-13.59;37.31
43480;BME280;29067;35.492;-97.520;2022-12-24T08:45:34;99171.08;;;-13.49;37.28
43480;BME280;29067;35.492;-97.520;2022-12-24T08:48:02;99168.28;;;-13.49;36.12
43480;BME280;29067;35.492;-97.520;2022-12-24T08:50:43;99168.86;;;-12.42;36.12
43480;BME280;29067;35.492;-97.520;2022-12-24T08:53:11;99173.48;;;-13.54;35.29
43480;BME280;29067;35.492;-97.520;2022-12-24T08:55:40;99173.96;;;-12.29;35.36
43480;BME280;29067;35.492;-97.520;2022-12-24T08:58:08;99171.64;;;-13.08;35.81
43480;BME280;29067;35.492;-97.520;2022-12-24T09:00:42;99173.60;;;-13.80;35.73
43480;BME280;29067;35.492;-97.520;2022-12-24T09:03:13;99167.74;;;-13.02;36.04
43480;BME280;29067;35.492;-97.520;2022-12-24T09:05:42;99167.13;;;-12.78;36.06
43480;BME280;29067;35.492;-97.520;2022-12-24T09:08:11;99166.30;;;-13.83;37.30
43480;BME280;29067;35.492;-97.520;2022-12-24T09:10:45;99164.48;;;-12.60;36.81
43480;BME280;29067;35.492;-97.520;2022-12-24T09:13:19;99165.54;;;-13.81;37.29
43480;BME280;29067;35.492;-97.520;2022-12-24T09:15:52;99155.50;;;-14.08;37.37
43480;BME280;29067;35.492;-97.520;2022-12-24T09:18:25;99150.46;;;-13.93;37.44
43480;BME280;29067;35.492;-97.520;2022-12-24T09:21:04;99154.46;;;-13.78;37.90
43480;BME280;29067;35.492;-97.520;2022-12-24T09:23:41;99146.85;;;-13.67;38.10
43480;BME280;29067;35.492;-97.520;2022-12-24T09:26:12;99150.82;;;-14.37;38.11
43480;BME280;29067;35.492;-97.520;2022-12-24T09:28:47;99153.48;;;-13.99;37.87
43480;BME280;29067;35.492;-97.520;2022-12-24T09:31:15;99142.66;;;-13.61;37.40
43480;BME280;29067;35.492;-97.520;2022-12-24T09:33:45;99142.40;;;-11.72;37.22
43480;BME280;29067;35.492;-97.520;2022-12-24T09:36:14;99139.55;;;-13.82;38.14
43480;BME280;29067;35.492;-97.520;2022-12-24T09:38:42;99136.01;;;-12.26;36.93
43480;BME280;29067;35.492;-97.520;2022-12-24T09:41:13;99137.41;;;-12.26;35.70
43480;BME280;29067;35.492;-97.520;2022-12-24T09:43:45;99136.00;;;-13.02;37.13
43480;BME280;29067;35.492;-97.520;2022-12-24T09:46:20;99137.96;;;-13.49;37.76
43480;BME280;29067;35.492;-97.520;2022-12-24T09:48:52;99137.70;;;-13.07;37.16
43480;BME280;29067;35.492;-97.520;2022-12-24T09:51:28;99138.03;;;-13.81;37.94
43480;BME280;29067;35.492;-97.520;2022-12-24T09:54:08;99148.99;;;-14.80;38.30
43480;BME280;29067;35.492;-97.520;2022-12-24T09:56:46;99144.68;;;-12.91;37.33
43480;BME280;29067;35.492;-97.520;2022-12-24T09:59:18;99146.38;;;-13.15;36.95
43480;BME280;29067;35.492;-97.520;2022-12-24T10:01:49;99137.73;;;-12.76;36.51
43480;BME280;29067;35.492;-97.520;2022-12-24T10:04:27;99132.97;;;-12.71;36.17
43480;BME280;29067;35.492;-97.520;2022-12-24T10:07:00;99126.51;;;-11.51;35.91
43480;BME280;29067;35.492;-97.520;2022-12-24T10:09:44;99134.15;;;-12.91;35.97
43480;BME280;29067;35.492;-97.520;2022-12-24T10:12:21;99142.26;;;-13.10;35.05
43480;BME280;29067;35.492;-97.520;2022-12-24T10:15:06;99142.20;;;-12.27;34.65
43480;BME280;29067;35.492;-97.520;2022-12-24T10:17:47;99145.61;;;-13.07;35.41
43480;BME280;29067;35.492;-97.520;2022-12-24T10:20:41;99150.31;;;-14.60;36.02
43480;BME280;29067;35.492;-97.520;2022-12-24T10:23:17;99155.73;;;-14.67;37.59
43480;BME280;29067;35.492;-97.520;2022-12-24T10:26:09;99155.57;;;-12.62;36.14
43480;BME280;29067;35.492;-97.520;2022-12-24T10:28:44;99153.02;;;-13.05;36.42
43480;BME280;29067;35.492;-97.520;2022-12-24T10:31:13;99155.77;;;-14.72;36.59
43480;BME280;29067;35.492;-97.520;2022-12-24T10:33:43;99156.87;;;-13.26;35.95
43480;BME280;29067;35.492;-97.520;2022-12-24T10:36:16;99152.99;;;-11.95;35.41
43480;BME280;29067;35.492;-97.520;2022-12-24T10:38:45;99152.19;;;-12.16;35.18
43480;BME280;29067;35.492;-97.520;2022-12-24T10:41:14;99148.60;;;-10.46;34.18
43480;BME280;29067;35.492;-97.520;2022-12-24T10:43:43;99148.17;;;-12.05;34.49
43480;BME280;29067;35.492;-97.520;2022-12-24T10:46:17;99151.18;;;-12.26;34.53
43480;BME280;29067;35.492;-97.520;2022-12-24T10:48:51;99152.76;;;-12.32;35.18
43480;BME280;29067;35.492;-97.520;2022-12-24T10:51:27;99154.49;;;-13.51;35.19
43480;BME280;29067;35.492;-97.520;2022-12-24T10:54:06;99162.18;;;-14.21;36.12
43480;BME280;29067;35.492;-97.520;2022-12-24T10:56:40;99158.92;;;-13.27;36.16
43480;BME280;29067;35.492;-97.520;2022-12-24T10:59:24;99149.37;;;-12.08;35.58
43480;BME280;29067;35.492;-97.520;2022-12-24T11:01:54;99151.85;;;-12.95;35.51
43480;BME280;29067;35.492;-97.520;2022-12-24T11:04:30;99152.64;;;-13.13;36.01
43480;BME280;29067;35.492;-97.520;2022-12-24T11:07:01;99154.71;;;-13.06;35.55
43480;BME280;29067;35.492;-97.520;2022-12-24T11:09:35;99149.52;;;-13.74;36.62
43480;BME280;29067;35.492;-97.520;2022-12-24T11:12:14;99144.60;;;-13.34;36.96
43480;BME280;29067;35.492;-97.520;2022-12-24T11:14:45;99139.99;;;-12.12;36.49
43480;BME280;29067;35.492;-97.520;2022-12-24T11:17:19;99142.92;;;-12.47;35.95
43480;BME280;29067;35.492;-97.520;2022-12-24T11:19:49;99140.03;;;-12.43;35.83
43480;BME280;29067;35.492;-97.520;2022-12-24T11:22:20;99144.51;;;-12.81;35.83
43480;BME280;29067;35.492;-97.520;2022-12-24T11:25:03;99141.03;;;-13.67;36.36
43480;BME280;29067;35.492;-97.520;2022-12-24T11:27:39;99139.92;;;-13.12;35.87
43480;BME280;29067;35.492;-97.520;2022-12-24T11:30:27;99137.42;;;-13.26;37.81
43480;BME280;29067;35.492;-97.520;2022-12-24T11:33:24;99133.88;;;-13.46;37.34
43480;BME280;29067;35.492;-97.520;2022-12-24T11:35:56;99137.18;;;-12.60;37.07
43480;BME280;29067;35.492;-97.520;2022-12-24T11:38:32;99136.22;;;-12.69;37.00
43480;BME280;29067;35.492;-97.520;2022-12-24T11:41:04;99134.31;;;-13.12;35.78
43480;BME280;29067;35.492;-97.520;2022-12-24T11:43:58;99132.10;;;-13.15;37.35
43480;BME280;29067;35.492;-97.520;2022-12-24T11:46:43;99129.54;;;-13.13;36.43
43480;BME280;29067;35.492;-97.520;2022-12-24T11:49:23;99127.72;;;-12.77;36.87
43480;BME280;29067;35.492;-97.520;2022-12-24T11:52:24;99130.71;;;-12.18;35.91
43480;BME280;29067;35.492;-97.520;2022-12-24T11:55:16;99134.46;;;-12.55;36.10
43480;BME280;29067;35.492;-97.520;2022-12-24T11:57:52;99131.71;;;-12.81;38.64
43480;BME280;29067;35.492;-97.520;2022-12-24T12:03:02;99130.49;;;-13.76;37.21
43480;BME280;29067;35.492;-97.520;2022-12-24T12:05:34;99124.69;;;-12.89;36.91
43480;BME280;29067;35.492;-97.520;2022-12-24T12:08:09;99123.26;;;-13.08;36.92
43480;BME280;29067;35.492;-97.520;2022-12-24T12:10:42;99117.88;;;-12.20;36.58
43480;BME280;29067;35.492;-97.520;2022-12-24T12:13:14;99114.36;;;-11.66;36.60
43480;BME280;29067;35.492;-97.520;2022-12-24T12:15:46;99113.38;;;-10.54;35.77
43480;BME280;29067;35.492;-97.520;2022-12-24T12:18:19;99115.45;;;-11.45;36.83
43480;BME280;29067;35.492;-97.520;2022-12-24T12:20:51;99118.98;;;-12.49;37.26
43480;BME280;29067;35.492;-97.520;2022-12-24T12:23:25;99122.46;;;-12.32;36.63
43480;BME280;29067;35.492;-97.520;2022-12-24T12:25:58;99123.33;;;-12.81;36.76
43480;BME280;29067;35.492;-97.520;2022-12-24T12:28:34;99128.31;;;-13.00;37.91
43480;BME280;29067;35.492;-97.520;2022-12-24T12:31:08;99125.49;;;-12.19;37.83
43480;BME280;29067;35.492;-97.520;2022-12-24T12:33:42;99131.70;;;-12.89;36.76
43480;BME280;29067;35.492;-97.520;2022-12-24T12:36:14;99132.13;;;-12.61;37.05
43480;BME280;29067;35.492;-97.520;2022-12-24T12:38:44;99135.07;;;-12.20;37.86
43480;BME280;29067;35.492;-97.520;2022-12-24T12:41:22;99140.35;;;-13.36;38.22
43480;BME280;29067;35.492;-97.520;2022-12-24T12:44:18;99137.29;;;-12.12;38.22
43480;BME280;29067;35.492;-97.520;2022-12-24T12:47:03;99146.41;;;-13.16;37.17
43480;BME280;29067;35.492;-97.520;2022-12-24T12:49:43;99138.65;;;-12.58;36.82
43480;BME280;29067;35.492;-97.520;2022-12-24T12:52:20;99146.93;;;-13.26;35.83
43480;BME280;29067;35.492;-97.520;2022-12-24T12:55:07;99144.98;;;-11.61;36.32
43480;BME280;29067;35.492;-97.520;2022-12-24T12:57:46;99147.28;;;-13.08;36.50